Hauptseite
METAR-TAF:

METAR-TAF

Flughäfen :

Hawarden Airport

Hawarden, Wales

Breite: 53-10N, Länge: 002-59W, Höhe: 10 m

Beobachtung

Neuester Wetterbericht von vor 36 Minuten, um 18:50 UTC
Wind 6 kt aus Nord/Nordwest
Temperatur 13°C
Luftfeuchtigkeit 77%
Luftdruck 1018 hPa
Sichtweite 10 km oder mehr
Leicht bewölkt in der Höhe von 4000 ft

METAR: EGNR 221850Z 34006KT 9999 FEW040 13/09 Q1018

Zeit: 20:26 (19:26 UTC)

Prognose

Neuester Wetterbericht von vor 2 Stunden und 25 Minuten, um 17:01 UTC
Gültige Prognose vom 22 um 18 UTC bis 22 um 20 UTC
Wind 8 kt aus Nord/Nordwest
Sichtweite 10 km oder mehr
Leicht bewölkt in der Höhe von 3000 ft

TAF: EGNR 221701Z 2218/2220 33008KT 9999 FEW030

Wetterbeobachtungen und Prognosen von mehr als 4000 Flughäfen (METAR und TAF Bericht).

Die verfügbaren Stationen werden durch gelbe und rote Markierungen auf der Karte dargestellt.

Führen Sie die Maus auf sie, um den Namen der Station zu sehen.

Darauf klicken, um die Beobachtung von Wetterbeobachtungen und Prognosen zu sehen.

Um die Karte zu ändern : klicken Sie auf den grünen Tasten mit einem schwarzen Kreuz Zum Vergrößern, auf den grünen Button mit einem Gedankenstrich zu verkleinern, oder auf die grünen Pfeile für benachbarte Karten.


METAR-TAF: